Динамо

Карта отелей и гостиниц, располагающихся рядом с аэропортом Динамо :



Динамо
Хабаровск
Хабаровский край 48° 26' 12.7212" N, 135° 8' 30.5412" E

Динамо
Хабаровск
Хабаровский край 48° 26' 12.7212" N, 135° 8' 30.5412" E
Код аэродрома ИКАО: 
XHHD
Код аэродрома RU: 
ЬХХД
Координаты: 
N48.43687° E135.14182°
Превышение над уровнем моря : 
59
Основная полоса: 
06/24
Курс магнитный: 
056,2/236,2
Длина основной ВПП: 
800
Ширина основной ВПП: 
60
Покрытие основной ВПП: 
Нетвёрдое
Тип: 
Аэродром
Освещение ВПП: 
Нет
Класс аэродрома: 
Статус: 
Действующий
Принадлежность: 
ДОСААФ
Сайт: 
E-mail аэродрома: 
Страна: 
Россия
Регион: 
Хабаровский край
Город: 
Хабаровск
Дополнительная информация: 
Оператор: нет данных.

Найти трансфер

С помощью этой формы Вы можете найти трансфер из аэропорта Динамо в город, аэропорт или вокзал:

Карта места

Javascript is required to view this map.

Погода в аэропортах:

Авиационная погода в Ярославле

Регион: 
Погода METAR: 
UUDL 210400Z 19002MPS 9999 -SHRA BKN034CB 02/01 Q1018 R23/150060 NOSIG RMK QFE755
Время наблюдения: 
2020-02-21T04:00:00Z
Температура C: 
2.0
Точка росы: 
1.0
Направление ветра: 
190
Скорость ветра: 
4
Метеорологическая видимость: 
6.21
Явления погоды: 
-SHRA
Условия полета: 
VFR
Аэропорт подробнее: 

Авиационная погода в Минске

Регион: 
Погода METAR: 
UMMS 210400Z 19005MPS 1600 1400S R13L/P2000 R13R/P2000 BR OVC002 00/00 Q1018 R88/CLRD// NOSIG RMK QBB060
Время наблюдения: 
2020-02-21T04:00:00Z
Температура C: 
0.0
Точка росы: 
0.0
Направление ветра: 
190
Скорость ветра: 
10
Метеорологическая видимость: 
0.99
Явления погоды: 
BR
Условия полета: 
LIFR
Аэропорт подробнее: 

Авиационная погода в Череповце

Регион: 
Погода METAR: 
ULWC 210400Z 00000MPS 2200 -SNRA BR OVC002 00/M00 Q1016 R21/490150 BECMG 3100 BR BKN003 RMK QBB060 QFE752/1003
Время наблюдения: 
2020-02-21T04:00:00Z
Температура C: 
0.0
Точка росы: 
0.0
Направление ветра: 
0
Скорость ветра: 
0
Метеорологическая видимость: 
1.37
Явления погоды: 
-SN -RA BR
Условия полета: 
LIFR
Аэропорт подробнее: 

Авиационная погода в Минеральные Воды

Регион: 
Погода METAR: 
URMM 210400Z 09004MPS 0800 0300NW R12/0500D -DZ FG VV001 02/01 Q1016 R12/090070 NOSIG RMK QBB050 MT OBSC QFE734/0979
Время наблюдения: 
2020-02-21T04:00:00Z
Температура C: 
2.0
Точка росы: 
1.0
Направление ветра: 
90
Скорость ветра: 
8
Метеорологическая видимость: 
0.5
Явления погоды: 
-DZ FG
Условия полета: 
LIFR
Аэропорт подробнее: